Latest Weather Observations for Yunta

IDS60801

Issued at 10:01 am CST Monday 3 August 2015 (issued every 30 minutes, with the page automatically refreshed every 10 minutes)

About weather observations | Map of weather stations | Latest weather observations for SA | Other Formats
Station Details ID: 020062 Name: YUNTA AIRSTRIP Lat: -32.57 Lon: 139.56 Height: 300.0 m
Data from the previous 72 hours. | See also: Recent months at Yunta
Date/Time
CST
Temp
°C
App
Temp
°C
Dew
Point
Rel
Hum
%
Delta-T
°C
Wind Press
QNH
hPa
Press
MSL
hPa
Rain
since 9 am
mm
Dir
 
Spd
km/h
Gust
km/h
Spd
kts
Gust
kts
03/10:00am 10.6 5.5 6.2 74 2.1 SW 22 32 12 17 1025.7 1026.0 0.0
03/09:30am 10.2 6.1 6.2 76 1.9 WSW 17 24 9 13 1025.6 1025.9 0.0
03/09:00am 9.9 6.1 5.9 76 1.9 WSW 15 20 8 11 1025.3 1025.6 0.0
03/08:30am 9.2 5.4 5.6 78 1.7 W 15 19 8 10 1025.1 1025.4 0.0
03/08:00am 8.0 4.4 4.9 81 1.4 W 13 19 7 10 1024.9 1025.1 0.0
03/07:30am 7.8 4.6 4.9 82 1.3 WNW 11 17 6 9 1024.5 1024.7 0.0
03/07:00am 7.7 5.4 5.0 83 1.2 NW 6 9 3 5 1024.2 1024.4 0.0
03/06:30am 7.1 5.6 5.1 87 0.9 ESE 2 4 1 2 1024.0 1024.2 0.0
03/06:00am 6.1 4.4 3.8 85 1.0 NNW 2 6 1 3 1023.8 1024.0 0.0
03/05:30am 7.1 4.8 4.6 84 1.1 WNW 6 7 3 4 1023.5 1023.7 0.0
03/05:00am 7.2 4.9 5.0 86 1.0 WSW 6 9 3 5 1023.4 1023.6 0.0
03/04:30am 5.9 4.5 3.4 84 1.1 CALM 0 0 0 0 1023.1 1023.3 0.0
03/04:00am 7.1 5.1 4.6 84 1.1 SSW 4 7 2 4 1023.1 1023.3 0.0
03/03:30am 7.4 5.1 4.9 84 1.1 WSW 6 13 3 7 1023.1 1023.3 0.0
03/03:00am 7.4 3.8 4.9 84 1.1 W 13 17 7 9 1023.3 1023.5 0.0
03/02:30am 7.6 4.3 4.7 82 1.3 W 11 17 6 9 1023.3 1023.5 0.0
03/02:00am 6.3 3.3 4.0 85 1.0 W 9 13 5 7 1023.5 1023.7 0.0
03/01:30am 7.1 3.4 4.6 84 1.1 W 13 13 7 7 1023.7 1023.9 0.0
03/01:00am 7.9 4.3 5.2 83 1.2 W 13 15 7 8 1023.7 1023.9 0.0
03/12:30am 7.9 4.0 5.4 84 1.1 WNW 15 20 8 11 1023.9 1024.1 0.0
03/12:00am 7.3 3.3 5.0 85 1.0 W 15 17 8 9 1023.9 1024.1 0.0
 
Date/Time
CST
Temp
°C
App
Temp
°C
Dew
Point
Rel
Hum
%
Delta-T
°C
Wind Press
QNH
hPa
Press
MSL
hPa
Rain
since 9 am
mm
Dir
 
Spd
km/h
Gust
km/h
Spd
kts
Gust
kts
02/11:30pm 7.6 5.2 5.2 85 1.1 WSW 7 7 4 4 1023.9 1024.1 0.0
02/11:00pm 8.2 5.0 5.1 81 1.4 W 11 13 6 7 1023.6 1023.8 0.0
02/10:30pm 8.9 5.3 5.1 77 1.7 W 13 17 7 9 1023.7 1023.9 0.0
02/10:00pm 9.6 5.7 5.4 75 1.9 WSW 15 24 8 13 1023.6 1023.8 0.0
02/09:30pm 9.6 5.4 5.6 76 1.8 WSW 17 26 9 14 1023.7 1023.9 0.0
02/09:00pm 9.1 6.2 4.7 74 2.0 WSW 9 15 5 8 1023.6 1023.8 0.0
02/08:30pm 8.2 4.4 3.9 74 1.9 WSW 13 17 7 9 1023.5 1023.7 0.0
02/08:00pm 8.0 5.2 3.1 71 2.1 SW 7 11 4 6 1023.2 1023.4 0.0
02/07:30pm 8.8 4.6 3.6 70 2.3 SW 15 19 8 10 1023.0 1023.2 0.0
02/07:00pm 9.3 5.0 3.1 65 2.7 SW 15 22 8 12 1022.8 1023.0 0.0
02/06:30pm 9.6 6.3 2.7 62 3.0 SW 9 15 5 8 1022.7 1022.9 0.0
02/06:00pm 10.9 4.4 2.5 56 3.7 SW 26 33 14 18 1022.2 1022.4 0.0
02/05:30pm 11.6 5.1 2.6 54 4.0 SW 26 35 14 19 1021.6 1021.8 0.0
02/05:00pm 12.2 6.1 2.9 53 4.2 SW 24 37 13 20 1021.3 1021.5 0.0
02/04:30pm 12.6 6.0 2.2 49 4.6 SW 26 37 14 20 1020.9 1021.1 0.0
02/04:00pm 13.5 6.9 1.8 45 5.2 SW 26 39 14 21 1020.7 1020.9 0.0
02/03:30pm 12.9 5.9 1.9 47 4.8 SW 28 33 15 18 1020.5 1020.7 0.0
02/03:00pm 13.4 6.6 1.1 43 5.3 SW 26 33 14 18 1020.2 1020.4 0.0
02/02:30pm 13.4 6.8 2.0 46 5.0 SW 26 35 14 19 1019.9 1020.1 0.0
02/02:00pm 13.3 6.2 1.6 45 5.1 SW 28 39 15 21 1020.0 1020.2 0.0
02/01:30pm 13.6 6.7 2.5 47 5.0 WSW 28 39 15 21 1019.9 1020.1 0.0
02/01:00pm 13.1 6.2 2.6 49 4.7 SW 28 41 15 22 1019.9 1020.1 0.0
02/12:30pm 12.1 5.6 2.8 53 4.1 WSW 26 35 14 19 1020.2 1020.4 0.0
02/12:00pm 12.3 5.5 3.0 53 4.1 SSW 28 39 15 21 1020.5 1020.7 0.0
02/11:30am 12.0 5.9 2.7 53 4.1 SW 24 33 13 18 1020.7 1020.9 0.0
02/11:00am 12.1 7.0 3.1 54 4.0 SW 19 28 10 15 1020.9 1021.1 0.0
02/10:30am 11.1 5.4 2.7 56 3.7 SSW 22 32 12 17 1021.1 1021.3 0.0
02/10:00am 10.5 5.2 2.8 59 3.4 SSW 20 28 11 15 1020.8 1021.0 0.0
02/09:30am 9.5 4.1 2.6 62 3.0 SSW 20 32 11 17 1020.5 1020.7 0.0
02/09:00am 9.0 4.2 4.4 73 2.1 SSW 19 28 10 15 1020.1 1020.3 0.2
02/08:30am 7.9 5.1 5.2 83 1.2 SSW 9 13 5 7 1019.9 1020.1 0.2
02/08:00am 6.7 4.3 4.5 86 1.0 SW 6 9 3 5 1019.7 1019.9 0.2
02/07:30am 6.8 3.5 4.6 86 1.0 SSW 11 13 6 7 1019.2 1019.3 0.2
02/07:00am 6.8 3.1 4.6 86 1.0 SSW 13 19 7 10 1018.5 1018.7 0.2
02/06:30am 6.9 1.9 4.7 86 1.0 SSW 20 30 11 16 1018.2 1018.4 0.2
02/06:00am 7.2 1.1 4.9 85 1.0 SSW 26 35 14 19 1017.7 1017.9 0.2
02/05:30am 7.4 3.4 4.9 84 1.1 S 15 20 8 11 1017.1 1017.3 0.0
02/05:00am 7.7 4.2 5.5 86 1.0 S 13 20 7 11 1016.5 1016.6 0.0
02/04:30am 7.9 3.4 6.0 88 0.9 S 19 24 10 13 1016.0 1016.1 0.0
02/04:00am 8.6 5.0 6.9 89 0.8 S 15 26 8 14 1016.0 1016.1 0.0
02/03:30am 8.6 5.0 6.9 89 0.8 SSE 15 22 8 12 1016.3 1016.4 0.0
02/03:00am 8.6 4.2 6.7 88 0.9 S 19 26 10 14 1015.5 1015.6 0.0
02/02:30am 8.7 5.5 6.7 87 0.9 S 13 24 7 13 1014.8 1015.0 0.0
02/02:00am 8.9 5.3 6.7 86 1.0 S 15 19 8 10 1016.5 1016.6 0.0
02/01:30am 9.1 5.3 6.0 81 1.4 S 15 20 8 11 1016.3 1016.4 0.0
02/01:00am 9.3 5.9 6.0 80 1.5 S 13 20 7 11 1016.1 1016.2 0.0
02/12:30am 8.8 6.2 6.1 83 1.3 SSE 9 15 5 8 1015.6 1015.7 0.0
02/12:00am 9.1 5.0 6.2 82 1.4 SSW 17 24 9 13 1016.5 1016.6 0.0
 
Date/Time
CST
Temp
°C
App
Temp
°C
Dew
Point
Rel
Hum
%
Delta-T
°C
Wind Press
QNH
hPa
Press
MSL
hPa
Rain
since 9 am
mm
Dir
 
Spd
km/h
Gust
km/h
Spd
kts
Gust
kts
01/11:30pm 9.0 4.3 6.1 82 1.4 SSW 20 26 11 14 1016.1 1016.2 0.0
01/11:00pm 9.1 5.4 6.4 83 1.3 SSW 15 19 8 10 1015.8 1015.9 0.0
01/10:30pm 9.5 5.9 6.6 82 1.4 SE 15 22 8 12 1014.9 1015.1 0.0
01/10:00pm 9.8 6.2 6.7 81 1.5 SSE 15 20 8 11 1015.8 1015.9 0.0
01/09:30pm 10.5 6.5 6.8 78 1.8 SSE 17 22 9 12 1015.5 1015.6 0.0
01/09:00pm 10.9 6.9 6.8 76 2.0 SSE 17 28 9 15 1015.3 1015.5 0.0
01/08:30pm 11.3 6.7 6.6 73 2.3 SE 20 26 11 14 1015.0 1015.2 0.0
01/08:00pm 11.4 6.8 6.7 73 2.3 SE 20 33 11 18 1015.0 1015.2 0.0
01/07:30pm 11.5 7.0 6.8 73 2.3 SSE 20 28 11 15 1014.8 1015.0 0.0
01/07:00pm 11.6 7.5 7.9 78 1.8 SSE 19 30 10 16 1014.6 1014.8 0.0
01/06:30pm 12.2 7.8 9.0 81 1.6 SSE 22 30 12 16 1014.2 1014.4 0.0
01/06:00pm 12.5 8.7 9.0 79 1.8 SSE 19 28 10 15 1014.0 1014.2 0.0
01/05:30pm 13.0 9.2 8.9 76 2.1 SSE 19 24 10 13 1013.7 1013.8 0.0
01/05:00pm 13.6 9.6 9.1 74 2.3 SSE 20 30 11 16 1013.7 1013.8 0.0
01/04:30pm 15.2 11.5 9.3 68 3.1 SSE 19 24 10 13 1013.5 1013.6 0.0
01/04:00pm 15.9 12.2 9.3 65 3.5 SSE 19 24 10 13 1013.3 1013.4 0.0
01/03:30pm 16.7 12.8 9.6 63 3.8 SSE 20 28 11 15 1013.3 1013.4 0.0
01/03:00pm 17.5 12.6 10.1 62 4.0 S 26 33 14 18 1013.3 1013.4 0.0
01/02:30pm 19.0 14.7 9.5 54 5.1 SSW 22 28 12 15 1013.0 1013.1 0.0
01/02:00pm 21.8 18.2 0.4 24 9.8 WSW 9 15 5 8 1013.2 1013.3 0.0
01/01:30pm 21.2 18.0 1.0 26 9.3 WSW 7 15 4 8 1013.6 1013.7 0.0
01/01:00pm 20.4 16.6 1.8 29 8.7 SW 11 17 6 9 1013.8 1013.9 0.0
01/12:30pm 20.7 16.4 1.1 27 9.0 W 13 19 7 10 1014.6 1014.8 0.0
01/12:00pm 20.6 16.4 -1.2 23 9.6 WSW 11 17 6 9 1015.1 1015.3 0.0
01/11:30am 20.4 15.9 -3.3 20 10.0 NW 11 22 6 12 1015.1 1015.3 0.0
01/11:00am 19.7 15.9 -3.9 20 9.8 NW 7 13 4 7 1015.7 1015.8 0.0
01/10:30am 18.5 15.5 -1.9 25 8.7 SW 4 9 2 5 1015.9 1016.0 0.0
01/10:00am 18.3 16.1 -1.5 26 8.5 CALM 0 0 0 0 1015.9 1016.0 0.0
01/09:30am 16.2 13.8 -0.5 32 7.2 NNW 2 6 1 3 1015.8 1015.9 0.0
01/09:00am 14.2 12.1 -0.6 36 6.2 CALM 0 2 0 1 1015.5 1015.8 0.0
01/08:30am 12.4 10.5 0.5 44 5.0 CALM 0 0 0 0 1015.8 1016.1 0.0
01/08:00am 10.4 7.7 0.4 50 4.1 SSE 4 7 2 4 1015.8 1016.1 0.0
01/07:30am 10.3 6.1 -0.8 46 4.5 NW 11 15 6 8 1015.6 1015.9 0.0
01/07:00am 9.6 6.3 -0.9 48 4.2 NNW 6 7 3 4 1015.1 1015.5 0.0
01/06:30am 9.8 5.2 -0.7 48 4.2 NNE 13 20 7 11 1014.5 1014.9 0.0
01/06:00am 12.1 8.8 -1.1 40 5.4 WSW 6 9 3 5 1014.9 1015.3 0.0
01/05:30am 10.9 8.0 -0.9 44 4.8 N 4 6 2 3 1014.1 1014.5 0.0
01/05:00am 11.3 5.9 -1.5 41 5.1 N 17 19 9 10 1013.6 1013.9 0.0
01/04:30am 12.4 7.0 -1.5 38 5.6 NNW 17 20 9 11 1013.8 1014.1 0.0
01/04:00am 13.3 8.2 -1.8 35 6.1 NNW 15 19 8 10 1013.9 1014.3 0.0
01/03:30am 13.1 7.7 -1.2 37 5.9 N 17 22 9 12 1013.4 1013.7 0.0
01/03:00am 13.7 7.9 -1.5 35 6.2 N 19 22 10 12 1013.6 1013.9 0.0
01/02:30am 13.7 8.3 -1.5 35 6.2 N 17 20 9 11 1014.0 1014.4 0.0
01/02:00am 13.8 8.4 -1.0 36 6.1 NNW 17 22 9 12 1014.6 1015.0 0.0
01/01:30am 13.4 7.7 -0.6 38 5.8 N 19 22 10 12 1014.6 1015.0 0.0
01/01:00am 14.0 8.1 -0.8 36 6.2 N 20 24 11 13 1015.0 1015.4 0.0
01/12:30am 14.1 8.2 -0.7 36 6.2 NNW 20 24 11 13 1015.5 1015.8 0.0
01/12:00am 13.8 8.0 -0.3 38 5.9 NNW 20 26 11 14 1015.8 1016.1 0.0
 
Date/Time
CST
Temp
°C
App
Temp
°C
Dew
Point
Rel
Hum
%
Delta-T
°C
Wind Press
QNH
hPa
Press
MSL
hPa
Rain
since 9 am
mm
Dir
 
Spd
km/h
Gust
km/h
Spd
kts
Gust
kts
31/11:30pm 13.1 8.0 0.5 42 5.4 N 17 20 9 11 1015.3 1015.7 0.0
31/11:00pm 12.8 8.0 0.5 43 5.2 N 15 19 8 10 1015.7 1016.0 0.0
31/10:30pm 13.0 8.2 0.4 42 5.4 N 15 19 8 10 1016.0 1016.3 0.0
31/10:00pm 12.4 8.0 0.5 44 5.0 N 13 17 7 9 1016.5 1016.8 0.0
31/09:30pm 13.4 7.5 -0.6 38 5.8 N 20 30 11 16 1016.6 1016.9 0.0
31/09:00pm 13.3 7.7 -0.3 39 5.7 N 19 26 10 14 1016.5 1016.8 0.0
31/08:30pm 13.7 8.2 0.7 41 5.6 N 19 24 10 13 1016.7 1017.1 0.0
31/08:00pm 14.4 8.7 0.3 38 6.1 N 20 24 11 13 1016.9 1017.3 0.0
31/07:30pm 15.3 9.7 -0.1 35 6.6 NNW 19 22 10 12 1017.0 1017.4 0.0
31/07:00pm 15.4 9.9 0.4 36 6.5 N 19 22 10 12 1016.7 1017.1 0.0
31/06:30pm 16.1 10.4 0.3 34 6.9 N 20 26 11 14 1016.2 1016.5 0.0
31/06:00pm 16.4 10.9 1.7 37 6.6 N 20 28 11 15 1016.1 1016.4 0.0
31/05:30pm 16.9 10.8 2.5 38 6.6 N 24 32 13 17 1016.0 1016.3 0.0
31/05:00pm 17.1 11.1 3.1 39 6.5 N 24 32 13 17 1016.1 1016.4 0.0
31/04:30pm 17.1 10.8 3.8 41 6.3 N 26 35 14 19 1016.3 1016.6 0.0
31/04:00pm 17.1 12.0 4.1 42 6.2 N 20 30 11 16 1016.4 1016.7 0.0
31/03:30pm 17.9 11.2 3.4 38 6.8 N 28 39 15 21 1016.7 1017.1 0.0
31/03:00pm 18.0 11.5 2.7 36 7.1 N 26 35 14 19 1016.6 1016.9 0.0
31/02:30pm 17.5 11.6 3.8 40 6.5 N 24 35 13 19 1017.1 1017.5 0.0
31/02:00pm 17.0 10.7 3.7 41 6.3 N 26 35 14 19 1017.7 1018.1 0.0
31/01:30pm 16.4 10.2 4.4 45 5.7 N 26 32 14 17 1018.3 1018.7 0.0
31/01:00pm 16.0 10.3 5.0 48 5.3 N 24 32 13 17 1019.2 1019.5 0.0
31/12:30pm 16.3 11.7 6.7 53 4.8 N 20 32 11 17 1019.8 1020.2 0.0
31/12:00pm 15.7 11.1 6.4 54 4.6 N 20 32 11 17 1020.4 1020.8 0.0
31/11:30am 15.2 10.9 7.0 58 4.1 NNE 19 24 10 13 1020.6 1021.0 0.0
31/11:00am 14.4 11.6 7.0 61 3.7 N 11 19 6 10 1021.1 1021.5 0.0
31/10:30am 13.8 12.0 7.1 64 3.3 NE 6 11 3 6 1021.5 1021.9 0.0

Other Formats:

Comma delimited format used in spreadsheet applications
http://www.bom.gov.au/fwo/IDS60801/IDS60801.94684.axf

JavaScript Object Notation format (JSON) in row-major order
http://www.bom.gov.au/fwo/IDS60801/IDS60801.94684.json